• Join FlightAware (Why Join?)
  • Login
  • US Flag 
06:48AM EDT


 

Airport Tracker/Info


-or-


 

Live Flight TrackerFlight Track Log ✈ AWE3417 ✈ 09-Apr-2013 ✈ KDCA - KCMH

Flight Track Log - Related Links

Times and Time Zones

All times are in EDT time to prevent confusion due to time zone crossing. See the AWE3417 flight status page for this flight to view local times or setup timezone preferences in your user account.

Time Position Orientation Groundspeed Altitude Reporting Facility
EDT Latitude Longitude Course Direction KTS MPH feet Rate Location/Type
07:54PM 38.7667 -77.0333 274° West 219 252 3,400  Level Potomac TRACON
07:55PM 38.7333 -77.1000 237° Southwest 257 296 5,200 2,460 Climbing Potomac TRACON
07:56PM 38.9333 -77.5004 270° West  Level FlightAware Approximate
07:56PM 38.7500 -77.1833 284° West 257 296 8,400  Level Potomac TRACON
07:57PM 38.9333 -77.6257 270° West  Level FlightAware Approximate
07:57PM 38.7833 -77.2667 297° West 262 302 11,000  Level Potomac TRACON
07:58PM 38.9333 -77.7509 270° West  Level FlightAware Approximate
07:58PM 38.8167 -77.3667 293° West 297 342 13,600  Level Potomac TRACON
07:59PM 38.9389 -77.8760 274° West  Level FlightAware Approximate
07:59PM 38.8500 -77.4667 293° West 304 350 16,200  Level Potomac TRACON
08:00PM 38.9451 -78.0010 274° West  Level FlightAware Approximate
08:02PM 38.9428 -77.7028 297° West 354 407 18,000  Level Washington Center
08:03PM 38.9469 -77.8150 273° West 354 407 20,100 2,160 Climbing Washington Center
08:04PM 38.9508 -77.9458 272° West 364 419 22,400 1,980 Climbing Washington Center
08:05PM 38.9544 -78.0822 272° West 369 425 24,100 1,560 Climbing Washington Center
08:06PM 38.9597 -78.2183 273° West 374 430 25,600 1,440 Climbing Washington Center
08:07PM 38.9631 -78.3575 272° West 387 445 27,000 660 Climbing Washington Center
08:08PM 38.9681 -78.4936 273° West 387 445 27,000 180 Level Washington Center
08:09PM 38.9708 -78.6300 272° West 387 445 27,400 780 Climbing Washington Center
08:10PM 38.9756 -78.7717 272° West 393 452 28,600 1,380 Climbing Washington Center
08:11PM 38.9781 -78.9133 271° West 400 460 30,200 1,320 Climbing Washington Center
08:12PM 38.9825 -79.0550 272° West 405 466 31,300 900 Climbing Washington Center
08:13PM 38.9844 -79.1969 271° West 405 466 32,000 300 Climbing Washington Center
08:14PM 38.9864 -79.3358 271° West 405 466 32,000  Level Washington Center
08:15PM 38.9903 -79.4775 272° West 405 466 32,000  Level Washington Center
08:16PM 39.0000 -79.6278 275° West 410 472 32,000  Level Washington Center
08:17PM 39.0011 -79.7747 271° West 416 479 32,000  Level Washington Center
08:18PM 39.0042 -79.9272 272° West 421 484 32,000 -360 Level Washington Center
08:19PM 39.0047 -80.1617 270° West 412 474 31,200 -660 Descending Indianapolis Center
08:20PM 39.0269 -80.3044 281° West 413 475 30,300 -960 Descending Indianapolis Center
08:21PM 39.0669 -80.4419 291° West 412 474 29,300 -960 Descending Indianapolis Center
08:22PM 39.1061 -80.5806 290° West 412 474 28,400 -960 Descending Indianapolis Center
08:23PM 39.1406 -80.7025 290° West 365 420 27,400 -1,020 Descending Indianapolis Center
08:24PM 39.1750 -80.8225 290° West 359 413 26,400 -1,080 Descending Indianapolis Center
08:25PM 39.2147 -80.9650 290° West 354 407 25,300 -1,080 Descending Indianapolis Center
08:26PM 39.2472 -81.0836 290° West 352 405 24,300 -960 Descending Indianapolis Center
08:27PM 39.2806 -81.2019 290° West 353 406 23,400 -960 Descending Indianapolis Center
08:28PM 39.3131 -81.3200 290° West 352 405 22,400 -720 Descending Indianapolis Center
08:29PM 39.3442 -81.4347 289° West 343 395 22,000 -240 Descending Indianapolis Center
08:31PM 39.3781 -81.5578 290° West 361 415 22,000 -420 Level Indianapolis Center
08:32PM 39.4192 -81.7081 290° West 370 426 21,200 -1,320 Descending Indianapolis Center
08:33PM 39.4519 -81.8319 289° West 367 422 19,300 -1,920 Descending Indianapolis Center
08:33PM 39.4653 -81.8778 291° West 367 422 18,600 -2,040 Descending Indianapolis Center
08:34PM 39.4839 -81.9525 288° West 355 409 17,400 -1,800 Descending Indianapolis Center
08:35PM 39.5150 -82.0669 289° West 341 392 15,600 -1,740 Descending Indianapolis Center
08:36PM 39.5472 -82.1856 289° West 327 376 13,800 -1,740 Descending Indianapolis Center
08:37PM 39.5758 -82.2967 289° West 322 371 12,100 -1,380 Descending Indianapolis Center
08:38PM 39.6558 -82.3564 330° Northwest 357 411 11,000 -540 Descending Indianapolis Center
08:39PM 39.7394 -82.3725 352° North 330 380 11,000 -300 Level Indianapolis Center
08:40PM 39.8200 -82.3878 352° North 295 339 10,500 -1,080 Descending Indianapolis Center
08:41PM 39.8983 -82.4069 349° North 285 328 8,800 -1,740 Descending Indianapolis Center
08:42PM 39.9558 -82.4633 323° Northwest 258 297 7,000 -1,680 Descending Indianapolis Center
08:43PM 39.9856 -82.5547 293° West 241 277 5,400 -1,320 Descending Indianapolis Center
08:44PM 39.9869 -82.6392 271° West 243 280 4,500 -1,080 Descending Indianapolis Center
08:45PM 39.9922 -82.7219 275° West 227 261 3,200 -1,200 Descending Indianapolis Center